Terminal Aerodrome Forecast
Issued by NWS

Home | Current Version | Previous Version | Text Only | Print | Product List | Glossary On
Versions: 1 2 3 4 5 6 7 8 9 10 11 12 13 14 15 16
660
FTUS43 KLSX 190520
TAFCPS
TAF
KCPS 190520Z 1906/2006 32013G22KT P6SM OVC045
     FM191100 33011G19KT P6SM OVC025
     FM191600 35010G16KT P6SM SCT025
     FM192100 35009KT P6SM SKC
     FM200200 02005KT P6SM SKC=

USA.gov is the U.S. government's official web portal to all federal, state and local government web resources and services.